createdAt,value
2023-12-24T00:02:12.022Z,7.20
2023-12-24T00:04:38.975Z,7.10
2023-12-24T00:07:06.020Z,6.90
2023-12-24T00:09:33.005Z,6.90
2023-12-24T00:11:59.991Z,6.90
2023-12-24T00:14:26.958Z,7.00
2023-12-24T00:16:53.985Z,7.10
2023-12-24T00:19:21.046Z,7.20
2023-12-24T00:21:48.033Z,7.10
2023-12-24T00:24:14.999Z,7.20
2023-12-24T00:26:42.030Z,7.20
2023-12-24T00:29:09.156Z,7.00
2023-12-24T00:31:36.255Z,6.90
2023-12-24T00:34:04.156Z,6.80
2023-12-24T00:36:31.131Z,6.80
2023-12-24T00:38:58.155Z,6.80
2023-12-24T00:41:25.701Z,6.70
2023-12-24T00:43:53.327Z,6.70
2023-12-24T00:46:20.202Z,6.70
2023-12-24T00:48:47.326Z,6.60
2023-12-24T00:51:14.385Z,6.60
2023-12-24T00:53:41.427Z,6.70
2023-12-24T00:56:08.545Z,6.80
2023-12-24T00:58:35.453Z,6.80
2023-12-24T01:01:02.407Z,6.80
2023-12-24T01:03:29.632Z,6.70
2023-12-24T01:05:56.736Z,6.70
2023-12-24T01:08:23.872Z,6.80
2023-12-24T01:10:53.719Z,6.80
2023-12-24T01:13:21.443Z,6.80
2023-12-24T01:15:49.546Z,6.70
2023-12-24T01:18:17.086Z,6.60
2023-12-24T01:20:44.741Z,6.60
2023-12-24T01:23:11.710Z,6.80
2023-12-24T01:25:38.882Z,7.10
2023-12-24T01:28:06.157Z,7.20
2023-12-24T01:30:33.268Z,7.10
2023-12-24T01:33:01.122Z,6.90
2023-12-24T01:35:28.328Z,6.80
2023-12-24T01:37:55.613Z,6.80
2023-12-24T01:40:22.639Z,6.90
2023-12-24T01:42:50.380Z,6.90
2023-12-24T01:45:17.641Z,7.00
2023-12-24T01:47:50.887Z,6.90
2023-12-24T01:50:20.553Z,6.90
2023-12-24T01:52:47.495Z,6.80
2023-12-24T01:55:14.589Z,6.80
2023-12-24T01:57:41.566Z,6.70
2023-12-24T02:00:09.189Z,6.60
2023-12-24T02:02:36.745Z,6.60
2023-12-24T02:05:04.085Z,6.60
2023-12-24T02:07:35.591Z,6.70
2023-12-24T02:10:02.927Z,6.60
2023-12-24T02:12:31.928Z,6.60
2023-12-24T02:14:58.842Z,6.60
2023-12-24T02:17:27.240Z,6.70
2023-12-24T02:19:54.316Z,6.80
2023-12-24T02:22:21.990Z,6.80
2023-12-24T02:24:49.085Z,6.80
2023-12-24T02:27:25.299Z,6.80
2023-12-24T02:29:57.618Z,6.80
2023-12-24T02:32:26.967Z,6.80
2023-12-24T02:34:57.261Z,6.70
2023-12-24T02:37:24.739Z,6.70
2023-12-24T02:39:51.716Z,6.90
2023-12-24T02:42:19.216Z,7.00
2023-12-24T02:44:46.178Z,7.00
2023-12-24T02:47:13.115Z,6.90
2023-12-24T02:49:40.105Z,6.80
2023-12-24T02:52:07.172Z,6.80
2023-12-24T02:54:34.078Z,6.80
2023-12-24T02:57:01.119Z,6.80
2023-12-24T02:59:29.382Z,6.80
2023-12-24T03:01:56.872Z,6.80
2023-12-24T03:04:23.757Z,6.70
2023-12-24T03:06:50.717Z,6.70
2023-12-24T03:09:17.762Z,6.50
2023-12-24T03:11:44.860Z,6.30
2023-12-24T03:14:11.903Z,6.10
2023-12-24T03:16:39.076Z,6.00
2023-12-24T03:19:06.011Z,5.90
2023-12-24T03:21:33.023Z,6.00
2023-12-24T03:24:00.085Z,6.00
2023-12-24T03:26:27.024Z,6.20
2023-12-24T03:28:54.135Z,6.20
2023-12-24T03:31:21.738Z,6.20
2023-12-24T03:33:48.895Z,6.10
2023-12-24T03:36:15.881Z,6.10
2023-12-24T03:38:43.833Z,6.00
2023-12-24T03:41:10.703Z,5.80
2023-12-24T03:43:37.756Z,5.90
2023-12-24T03:46:04.804Z,5.90
2023-12-24T03:48:33.214Z,6.00
2023-12-24T03:51:00.295Z,6.00
2023-12-24T03:53:27.348Z,6.00
2023-12-24T03:55:54.253Z,5.90
2023-12-24T03:58:21.336Z,5.90
2023-12-24T04:00:48.426Z,5.90
2023-12-24T04:03:15.377Z,6.00
2023-12-24T04:05:42.466Z,6.00
2023-12-24T04:08:09.995Z,5.90
2023-12-24T04:10:42.832Z,5.90
2023-12-24T04:13:13.417Z,5.90
2023-12-24T04:15:40.453Z,5.80
2023-12-24T04:18:07.728Z,5.70
2023-12-24T04:20:34.983Z,5.70
2023-12-24T04:23:01.946Z,5.70
2023-12-24T04:25:28.949Z,5.80
2023-12-24T04:27:55.885Z,5.90
2023-12-24T04:30:22.903Z,5.90
2023-12-24T04:32:50.009Z,6.00
2023-12-24T04:35:17.157Z,6.00
2023-12-24T04:37:44.133Z,6.10
2023-12-24T04:40:12.905Z,6.10
2023-12-24T04:42:40.440Z,6.10
2023-12-24T04:45:07.980Z,6.10
2023-12-24T04:47:35.081Z,6.10
2023-12-24T04:50:02.210Z,6.10
2023-12-24T04:52:29.332Z,6.00
2023-12-24T04:54:56.306Z,5.90
2023-12-24T04:57:23.210Z,5.80
2023-12-24T04:59:50.107Z,5.80
2023-12-24T05:02:17.160Z,5.70
2023-12-24T05:04:44.249Z,5.60
2023-12-24T05:07:11.292Z,5.80
2023-12-24T05:09:42.504Z,5.80
2023-12-24T05:12:10.465Z,5.70
2023-12-24T05:14:37.402Z,5.70
2023-12-24T05:17:04.923Z,5.60
2023-12-24T05:19:32.045Z,5.60
2023-12-24T05:21:59.115Z,5.60
2023-12-24T05:24:26.541Z,5.50
2023-12-24T05:26:53.583Z,5.50
2023-12-24T05:29:20.515Z,5.50
2023-12-24T05:31:47.713Z,5.40
2023-12-24T05:34:14.694Z,5.40
2023-12-24T05:36:41.698Z,5.30
2023-12-24T05:39:12.189Z,5.40
2023-12-24T05:41:39.175Z,5.40
2023-12-24T05:44:06.264Z,5.40
2023-12-24T05:46:33.313Z,5.30
2023-12-24T05:49:00.275Z,5.30
2023-12-24T05:51:27.269Z,5.40
2023-12-24T05:53:54.182Z,5.40
2023-12-24T05:56:21.129Z,5.60
2023-12-24T05:58:48.035Z,5.70
2023-12-24T06:01:14.987Z,5.60
2023-12-24T06:03:43.089Z,5.60
2023-12-24T06:06:10.333Z,5.70
2023-12-24T06:08:37.476Z,5.70
2023-12-24T06:11:04.628Z,5.60
2023-12-24T06:13:31.600Z,5.50
2023-12-24T06:15:58.547Z,5.50
2023-12-24T06:18:25.677Z,5.50
2023-12-24T06:20:52.887Z,5.50
2023-12-24T06:23:19.883Z,5.60
2023-12-24T06:25:46.777Z,5.50
2023-12-24T06:28:13.777Z,5.50
2023-12-24T06:30:40.664Z,5.50
2023-12-24T06:33:09.073Z,5.60
2023-12-24T06:35:36.066Z,5.50
2023-12-24T06:38:03.232Z,5.50
2023-12-24T06:40:30.094Z,5.30
2023-12-24T06:42:56.997Z,5.30
2023-12-24T06:45:23.996Z,5.30
2023-12-24T06:47:51.042Z,5.30
2023-12-24T06:50:19.065Z,5.20
2023-12-24T06:52:46.193Z,5.30
2023-12-24T06:55:13.346Z,5.30
2023-12-24T06:57:40.317Z,5.40
2023-12-24T07:00:07.872Z,5.40
2023-12-24T07:02:34.935Z,5.50
2023-12-24T07:05:02.352Z,5.50
2023-12-24T07:07:29.518Z,5.40
2023-12-24T07:09:57.168Z,5.30
2023-12-24T07:12:25.197Z,5.20
2023-12-24T07:14:52.275Z,5.20
2023-12-24T07:17:19.415Z,5.20
2023-12-24T07:19:46.468Z,5.00
2023-12-24T07:22:17.097Z,4.90
2023-12-24T07:24:43.958Z,5.00
2023-12-24T07:27:11.002Z,5.00
2023-12-24T07:29:38.323Z,5.00
2023-12-24T07:32:05.814Z,4.90
2023-12-24T07:34:32.732Z,5.00
2023-12-24T07:36:59.657Z,5.10
2023-12-24T07:39:26.787Z,5.20
2023-12-24T07:41:56.758Z,5.20
2023-12-24T07:44:23.755Z,5.20
2023-12-24T07:46:50.640Z,5.30
2023-12-24T07:49:17.585Z,5.50
2023-12-24T07:51:44.557Z,5.40
2023-12-24T07:54:11.462Z,5.50
2023-12-24T07:56:38.380Z,5.50
2023-12-24T07:59:05.416Z,5.60
2023-12-24T08:01:32.490Z,5.80
2023-12-24T08:03:59.395Z,5.90
2023-12-24T08:06:28.803Z,6.10
2023-12-24T08:08:57.759Z,6.20
2023-12-24T08:11:25.005Z,6.50
2023-12-24T08:13:52.135Z,6.70
2023-12-24T08:16:19.069Z,6.80
2023-12-24T08:18:46.221Z,6.70
2023-12-24T08:21:13.383Z,6.80
2023-12-24T08:23:40.681Z,6.80
2023-12-24T08:26:07.712Z,6.90
2023-12-24T08:28:34.715Z,7.00
2023-12-24T08:31:02.136Z,7.10
2023-12-24T08:33:29.489Z,7.20
2023-12-24T08:35:56.570Z,7.30
2023-12-24T08:38:23.529Z,7.40
2023-12-24T08:40:50.580Z,7.40
2023-12-24T08:43:17.485Z,7.50
2023-12-24T08:45:44.374Z,7.60
2023-12-24T08:48:11.487Z,7.80
2023-12-24T08:50:38.672Z,7.90
2023-12-24T08:53:06.176Z,8.00
2023-12-24T08:55:33.160Z,8.10
2023-12-24T08:58:00.467Z,8.20
2023-12-24T09:00:27.470Z,8.40
2023-12-24T09:02:54.667Z,8.40
2023-12-24T09:05:22.041Z,8.40
2023-12-24T09:07:49.009Z,8.50
2023-12-24T09:10:15.903Z,8.60
2023-12-24T09:12:42.937Z,8.70
2023-12-24T09:15:10.356Z,8.90
2023-12-24T09:17:37.356Z,9.00
2023-12-24T09:20:06.958Z,9.00
2023-12-24T09:22:34.424Z,9.10
2023-12-24T09:25:01.638Z,9.30
2023-12-24T09:27:28.944Z,9.40
2023-12-24T09:29:55.891Z,9.70
2023-12-24T09:32:22.784Z,10.20
2023-12-24T09:34:49.744Z,10.90
2023-12-24T09:37:16.743Z,11.80
2023-12-24T09:39:44.775Z,12.50
2023-12-24T09:42:11.808Z,12.90
2023-12-24T09:44:38.734Z,12.70
2023-12-24T09:47:05.928Z,13.20
2023-12-24T09:49:32.942Z,14.40
2023-12-24T09:52:01.279Z,14.50
2023-12-24T09:54:28.322Z,13.70
2023-12-24T09:56:57.016Z,13.50
2023-12-24T09:59:23.955Z,13.80
2023-12-24T10:01:51.102Z,14.30
2023-12-24T10:04:18.038Z,14.90
2023-12-24T10:06:58.685Z,15.50
2023-12-24T10:09:51.365Z,16.10
2023-12-24T10:12:20.092Z,17.20
2023-12-24T10:15:05.656Z,19.00
2023-12-24T10:17:34.352Z,18.80
2023-12-24T10:20:10.643Z,18.20
2023-12-24T10:22:37.908Z,18.60
2023-12-24T10:25:07.227Z,19.30
2023-12-24T10:27:35.858Z,19.80
2023-12-24T10:30:14.734Z,19.30
2023-12-24T10:32:43.904Z,18.60
2023-12-24T10:35:11.571Z,17.70
2023-12-24T10:37:38.688Z,17.90
2023-12-24T10:40:10.747Z,18.20
2023-12-24T10:42:41.663Z,17.30
2023-12-24T10:45:10.452Z,16.90
2023-12-24T10:47:37.871Z,16.80
2023-12-24T10:50:06.235Z,17.10
2023-12-24T10:52:33.353Z,17.00
2023-12-24T10:55:01.928Z,16.70
2023-12-24T10:57:41.924Z,16.40
2023-12-24T11:00:11.899Z,16.80
2023-12-24T11:02:39.262Z,17.20
2023-12-24T11:05:07.261Z,16.80
2023-12-24T11:07:49.469Z,16.50
2023-12-24T11:10:40.332Z,16.00
2023-12-24T11:13:13.256Z,15.60
2023-12-24T11:15:43.028Z,15.60
2023-12-24T11:18:11.407Z,15.90
2023-12-24T11:20:42.926Z,15.90
2023-12-24T11:23:10.768Z,15.30
2023-12-24T11:25:45.921Z,15.20
2023-12-24T11:28:24.448Z,15.40
2023-12-24T11:30:51.779Z,15.80
2023-12-24T11:33:46.911Z,16.30
2023-12-24T11:36:15.733Z,16.50
2023-12-24T11:38:43.523Z,16.60
2023-12-24T11:41:21.335Z,16.50
2023-12-24T11:44:01.982Z,16.90
2023-12-24T11:46:30.788Z,17.50
2023-12-24T11:49:04.332Z,17.90
2023-12-24T11:51:33.219Z,18.10
2023-12-24T11:54:05.085Z,18.30
2023-12-24T11:56:33.616Z,18.50
2023-12-24T11:59:03.087Z,18.80
2023-12-24T12:01:38.714Z,19.30
2023-12-24T12:04:06.988Z,19.50
2023-12-24T12:06:36.116Z,19.20
2023-12-24T12:09:07.861Z,19.20
2023-12-24T12:11:35.319Z,19.00
2023-12-24T12:14:05.700Z,18.60
2023-12-24T12:16:32.879Z,19.10
2023-12-24T12:19:00.128Z,19.20
2023-12-24T12:21:27.236Z,20.10
2023-12-24T12:23:54.478Z,21.10
2023-12-24T12:26:21.579Z,21.20
2023-12-24T12:28:48.525Z,20.80
2023-12-24T12:31:15.470Z,21.00
2023-12-24T12:33:42.952Z,22.40
2023-12-24T12:36:10.703Z,24.00
2023-12-24T12:38:37.654Z,25.30
2023-12-24T12:41:05.525Z,25.20
2023-12-24T12:43:33.098Z,24.80
2023-12-24T12:46:00.051Z,24.30
2023-12-24T12:48:27.282Z,24.50
2023-12-24T12:50:54.505Z,25.60
2023-12-24T12:53:26.414Z,26.50
2023-12-24T12:56:08.314Z,27.60
2023-12-24T12:58:35.521Z,27.20
2023-12-24T13:01:02.924Z,26.00
2023-12-24T13:03:30.054Z,23.80
2023-12-24T13:05:58.824Z,23.00
2023-12-24T13:08:26.739Z,23.20
2023-12-24T13:10:53.830Z,23.90
2023-12-24T13:13:25.345Z,24.40
2023-12-24T13:16:08.817Z,24.00
2023-12-24T13:18:37.127Z,24.80
2023-12-24T13:21:05.962Z,25.10
2023-12-24T13:23:33.425Z,25.30
2023-12-24T13:26:04.562Z,25.40
2023-12-24T13:28:31.809Z,25.70
2023-12-24T13:30:58.807Z,25.00
2023-12-24T13:33:26.055Z,24.60
2023-12-24T13:35:53.025Z,24.50
2023-12-24T13:38:21.875Z,24.90
2023-12-24T13:40:49.118Z,26.10
2023-12-24T13:43:16.628Z,25.60
2023-12-24T13:45:43.752Z,24.80
2023-12-24T13:48:13.095Z,24.20
2023-12-24T13:50:42.627Z,25.20
2023-12-24T13:53:19.301Z,25.40
2023-12-24T13:55:58.425Z,25.30
2023-12-24T13:58:25.810Z,24.60
2023-12-24T14:00:52.893Z,23.20
2023-12-24T14:03:25.461Z,22.60
2023-12-24T14:05:52.886Z,22.60
2023-12-24T14:08:22.488Z,23.10
2023-12-24T14:10:50.260Z,23.30
2023-12-24T14:13:17.405Z,23.10
2023-12-24T14:15:44.386Z,23.20
2023-12-24T14:18:11.540Z,22.70
2023-12-24T14:20:39.319Z,22.30
2023-12-24T14:23:06.335Z,21.80
2023-12-24T14:25:33.282Z,21.70
2023-12-24T14:28:00.221Z,21.20
2023-12-24T14:30:27.104Z,20.80
2023-12-24T14:32:55.080Z,20.40
2023-12-24T14:35:22.300Z,19.80
2023-12-24T14:37:49.338Z,18.80
2023-12-24T14:40:16.776Z,18.00
2023-12-24T14:42:43.866Z,17.60
2023-12-24T14:45:10.864Z,17.30
2023-12-24T14:47:38.196Z,17.30
2023-12-24T14:50:05.899Z,17.50
2023-12-24T14:52:32.958Z,17.50
2023-12-24T14:55:00.820Z,17.10
2023-12-24T14:57:29.941Z,16.70
2023-12-24T14:59:57.090Z,16.60
2023-12-24T15:02:29.610Z,16.80
2023-12-24T15:04:57.143Z,16.40
2023-12-24T15:07:26.241Z,16.10
2023-12-24T15:09:53.788Z,16.30
2023-12-24T15:12:21.411Z,16.30
2023-12-24T15:14:49.110Z,16.30
2023-12-24T15:17:17.514Z,16.10
2023-12-24T15:19:45.938Z,15.90
2023-12-24T15:22:13.656Z,15.50
2023-12-24T15:24:41.153Z,15.20
2023-12-24T15:27:08.419Z,14.80
2023-12-24T15:29:37.148Z,14.60
2023-12-24T15:32:05.982Z,14.40
2023-12-24T15:34:32.941Z,14.20
2023-12-24T15:37:01.048Z,14.00
2023-12-24T15:39:28.149Z,13.80
2023-12-24T15:41:55.223Z,13.60
2023-12-24T15:44:22.370Z,13.40
2023-12-24T15:46:50.162Z,13.20
2023-12-24T15:49:17.780Z,13.00
2023-12-24T15:51:45.156Z,12.90
2023-12-24T15:54:12.376Z,12.90
2023-12-24T15:56:41.099Z,12.90
2023-12-24T15:59:09.589Z,12.80
2023-12-24T16:01:47.184Z,12.70
2023-12-24T16:04:14.615Z,12.60
2023-12-24T16:06:43.801Z,12.50
2023-12-24T16:09:11.015Z,12.50
2023-12-24T16:11:39.647Z,12.40
2023-12-24T16:14:09.784Z,12.30
2023-12-24T16:16:36.833Z,12.20
2023-12-24T16:19:04.468Z,12.20
2023-12-24T16:21:37.265Z,12.10
2023-12-24T16:24:06.717Z,12.10
2023-12-24T16:26:35.782Z,12.00
2023-12-24T16:29:02.990Z,11.80
2023-12-24T16:31:30.933Z,11.80
2023-12-24T16:33:59.182Z,11.80
2023-12-24T16:36:26.347Z,11.80
2023-12-24T16:38:55.044Z,11.70
2023-12-24T16:41:23.572Z,11.60
2023-12-24T16:43:50.629Z,11.60
2023-12-24T16:46:17.818Z,11.60
2023-12-24T16:48:44.979Z,11.50
2023-12-24T16:51:22.736Z,11.50
2023-12-24T16:53:49.896Z,11.50
2023-12-24T16:56:18.076Z,11.30
2023-12-24T16:58:47.770Z,11.10
2023-12-24T17:01:14.968Z,11.00
2023-12-24T17:03:42.155Z,10.80
2023-12-24T17:06:10.599Z,10.70
2023-12-24T17:08:39.269Z,10.70
2023-12-24T17:11:07.933Z,10.60
2023-12-24T17:13:34.952Z,10.60
2023-12-24T17:16:06.150Z,10.50
2023-12-24T17:18:33.777Z,10.40
2023-12-24T17:21:01.012Z,10.30
2023-12-24T17:23:28.208Z,10.20
2023-12-24T17:25:56.723Z,10.10
2023-12-24T17:28:23.690Z,10.00
2023-12-24T17:30:50.619Z,9.90
2023-12-24T17:33:19.746Z,9.80
2023-12-24T17:35:46.884Z,9.70
2023-12-24T17:38:15.957Z,9.60
2023-12-24T17:40:42.873Z,9.60
2023-12-24T17:43:12.210Z,9.40
2023-12-24T17:45:41.069Z,9.30
2023-12-24T17:48:16.985Z,9.30
2023-12-24T17:50:47.358Z,9.40
2023-12-24T17:53:14.704Z,9.50
2023-12-24T17:55:42.362Z,9.30
2023-12-24T17:58:09.770Z,9.10
2023-12-24T18:00:36.599Z,9.00
2023-12-24T18:03:04.192Z,9.00
2023-12-24T18:05:31.368Z,8.90
2023-12-24T18:07:58.660Z,8.80
2023-12-24T18:10:25.579Z,8.70
2023-12-24T18:12:52.978Z,8.60
2023-12-24T18:15:20.189Z,8.60
2023-12-24T18:17:48.190Z,8.60
2023-12-24T18:20:15.569Z,8.50
2023-12-24T18:22:42.888Z,8.40
2023-12-24T18:25:09.895Z,8.40
2023-12-24T18:27:36.871Z,8.30
2023-12-24T18:30:04.068Z,8.30
2023-12-24T18:32:31.111Z,8.30
2023-12-24T18:34:58.102Z,8.20
2023-12-24T18:37:25.133Z,8.20
2023-12-24T18:39:52.039Z,8.30
2023-12-24T18:42:19.043Z,8.20
2023-12-24T18:44:46.041Z,8.20
2023-12-24T18:47:12.910Z,8.20
2023-12-24T18:49:42.738Z,8.00
2023-12-24T18:52:09.654Z,7.90
2023-12-24T18:54:36.614Z,7.90
2023-12-24T18:57:04.289Z,7.80
2023-12-24T18:59:31.352Z,7.80
2023-12-24T19:01:58.244Z,7.80
2023-12-24T19:04:25.148Z,7.80
2023-12-24T19:06:52.509Z,7.80
2023-12-24T19:09:19.416Z,7.80
2023-12-24T19:11:46.305Z,7.80
2023-12-24T19:14:13.773Z,7.90
2023-12-24T19:16:40.886Z,7.90
2023-12-24T19:19:08.042Z,7.90
2023-12-24T19:21:35.078Z,7.90
2023-12-24T19:24:01.938Z,7.80
2023-12-24T19:26:28.974Z,7.80
2023-12-24T19:29:03.322Z,7.80
2023-12-24T19:31:36.093Z,7.90
2023-12-24T19:34:03.481Z,7.90
2023-12-24T19:36:30.506Z,7.90
2023-12-24T19:38:57.401Z,7.80
2023-12-24T19:41:24.384Z,7.80
2023-12-24T19:43:51.372Z,7.70
2023-12-24T19:46:18.619Z,7.70
2023-12-24T19:48:47.049Z,7.70
2023-12-24T19:51:14.102Z,7.70
2023-12-24T19:53:41.042Z,7.70
2023-12-24T19:56:08.167Z,7.70
2023-12-24T19:58:35.185Z,7.60
2023-12-24T20:01:02.844Z,7.60
2023-12-24T20:03:29.862Z,7.60
2023-12-24T20:05:56.995Z,7.60
2023-12-24T20:08:24.003Z,7.50
2023-12-24T20:10:51.034Z,7.50
2023-12-24T20:13:19.033Z,7.50
2023-12-24T20:15:45.984Z,7.60
2023-12-24T20:18:13.470Z,7.50
2023-12-24T20:20:40.595Z,7.40
2023-12-24T20:23:08.077Z,7.30
2023-12-24T20:25:35.036Z,7.30
2023-12-24T20:28:04.478Z,7.20
2023-12-24T20:30:32.970Z,7.20
2023-12-24T20:33:01.010Z,7.10
2023-12-24T20:35:28.318Z,7.10
2023-12-24T20:37:55.301Z,7.00
2023-12-24T20:40:22.182Z,7.00
2023-12-24T20:42:49.174Z,6.90
2023-12-24T20:45:17.387Z,6.80
2023-12-24T20:47:44.408Z,6.80
2023-12-24T20:50:11.602Z,6.80
2023-12-24T20:52:38.571Z,6.60
2023-12-24T20:55:06.013Z,6.60
2023-12-24T20:57:33.017Z,6.70
2023-12-24T20:59:59.914Z,6.80
2023-12-24T21:02:33.680Z,6.90
2023-12-24T21:05:04.288Z,6.80
2023-12-24T21:07:31.385Z,6.80
2023-12-24T21:09:58.371Z,7.00
2023-12-24T21:12:25.691Z,7.00
2023-12-24T21:14:52.606Z,7.00
2023-12-24T21:17:19.921Z,7.10
2023-12-24T21:19:47.413Z,7.10
2023-12-24T21:22:14.688Z,6.90
2023-12-24T21:24:41.590Z,6.90
2023-12-24T21:27:08.510Z,6.80
2023-12-24T21:29:35.436Z,6.70
2023-12-24T21:32:04.164Z,6.70
2023-12-24T21:34:31.293Z,6.60
2023-12-24T21:36:58.277Z,6.50
2023-12-24T21:39:25.223Z,6.30
2023-12-24T21:41:52.728Z,6.10
2023-12-24T21:44:19.688Z,6.00
2023-12-24T21:46:46.602Z,6.00
2023-12-24T21:49:13.859Z,6.00
2023-12-24T21:51:42.248Z,6.00
2023-12-24T21:54:09.267Z,6.00
2023-12-24T21:56:36.422Z,6.00
2023-12-24T21:59:05.146Z,6.00
2023-12-24T22:01:33.388Z,6.10
2023-12-24T22:04:00.935Z,6.20
2023-12-24T22:06:28.967Z,6.20
2023-12-24T22:08:56.104Z,6.30
2023-12-24T22:11:23.285Z,6.20
2023-12-24T22:13:50.353Z,6.20
2023-12-24T22:16:18.403Z,6.00
2023-12-24T22:18:45.770Z,5.90
2023-12-24T22:21:14.486Z,5.70
2023-12-24T22:23:41.468Z,5.60
2023-12-24T22:26:10.529Z,5.50
2023-12-24T22:28:37.530Z,5.50
2023-12-24T22:31:07.697Z,5.50
2023-12-24T22:33:35.349Z,5.40
2023-12-24T22:36:02.463Z,5.40
2023-12-24T22:38:29.577Z,5.40
2023-12-24T22:40:56.458Z,5.40
2023-12-24T22:43:23.459Z,5.40
2023-12-24T22:45:52.450Z,5.40
2023-12-24T22:48:20.142Z,5.40
2023-12-24T22:50:47.429Z,5.40
2023-12-24T22:53:15.133Z,5.40
2023-12-24T22:55:42.435Z,5.40
2023-12-24T22:58:09.475Z,5.40
2023-12-24T23:00:36.523Z,5.40
2023-12-24T23:03:03.940Z,5.40
2023-12-24T23:05:30.886Z,5.30
2023-12-24T23:07:58.090Z,5.30
2023-12-24T23:10:25.391Z,5.30
2023-12-24T23:12:52.489Z,5.20
2023-12-24T23:15:19.669Z,5.20
2023-12-24T23:17:46.786Z,5.10
2023-12-24T23:20:14.110Z,5.10
2023-12-24T23:22:41.074Z,5.10
2023-12-24T23:25:08.355Z,5.00
2023-12-24T23:27:35.263Z,5.10
2023-12-24T23:30:02.604Z,5.10
2023-12-24T23:32:29.717Z,5.10
2023-12-24T23:34:56.761Z,5.00
2023-12-24T23:37:23.793Z,5.00
2023-12-24T23:39:50.706Z,4.90
2023-12-24T23:42:17.732Z,4.90
2023-12-24T23:44:44.647Z,4.80
2023-12-24T23:47:11.652Z,4.80
2023-12-24T23:49:38.570Z,4.90
2023-12-24T23:52:05.680Z,4.90
2023-12-24T23:54:32.692Z,4.90
2023-12-24T23:56:59.670Z,4.90
2023-12-24T23:59:26.727Z,4.80
